Dr.Michael Heilos
Wetterdaten: aktuell Freitag, 24.05.2024 16:00
Datum Zeit Temp. A. Feuchte A. Luftdruck Regen Wind Richtung Richtung Sonnenschein Solar Windchill Windben
24.05.2024 16:00 15,4 C 62 % 1018,6 hPa 0,0 l/m 3,3 km/h (1 Bft) O-SO 114 0 min 62 W/m 15,4 C 14,5 km/h (3 Bft)
24.05.2024 15:50 15,4 C 62 % 1018,9 hPa 0,0 l/m 2,3 km/h (1 Bft) O-SO 111 0 min 123 W/m 15,4 C 6,4 km/h (2 Bft)
24.05.2024 15:40 15,4 C 61 % 1019,0 hPa 0,0 l/m 3,1 km/h (1 Bft) O-SO 122 10 min 158 W/m 15,4 C 9,7 km/h (2 Bft)
24.05.2024 15:30 15,4 C 61 % 1019,0 hPa 0,0 l/m 3,3 km/h (1 Bft) O-SO 103 0 min 111 W/m 15,4 C 11,3 km/h (2 Bft)
24.05.2024 15:20 15,6 C 59 % 1019,3 hPa 0,0 l/m 4,3 km/h (1 Bft) SO 134 0 min 47 W/m 15,6 C 17,7 km/h (3 Bft)
24.05.2024 15:10 16,1 C 58 % 1019,2 hPa 0,0 l/m 5,4 km/h (1 Bft) SO 133 0 min 32 W/m 16,1 C 19,3 km/h (3 Bft)
24.05.2024 15:00 17,1 C 55 % 1019,0 hPa 0,2 l/m 10,3 km/h (2 Bft) N-NO 28 0 min 81 W/m 15,3 C 25,7 km/h (4 Bft)
24.05.2024 14:50 19,6 C 56 % 1019,1 hPa 0,0 l/m 3,5 km/h (1 Bft) O-SO 115 0 min 26 W/m 19,6 C 17,7 km/h (3 Bft)
24.05.2024 14:40 20,1 C 55 % 1018,6 hPa 0,0 l/m 3,1 km/h (1 Bft) W-SW 251 10 min 183 W/m 20,1 C 9,7 km/h (2 Bft)
24.05.2024 14:30 19,9 C 55 % 1018,6 hPa 0,0 l/m 3,0 km/h (1 Bft) N-NW 336 10 min 710 W/m 19,9 C 9,7 km/h (2 Bft)
24.05.2024 14:20 19,3 C 56 % 1018,7 hPa 0,0 l/m 3,8 km/h (1 Bft) N-NW 346 10 min 705 W/m 19,3 C 11,3 km/h (2 Bft)
24.05.2024 14:10 18,9 C 56 % 1018,8 hPa 0,0 l/m 2,6 km/h (1 Bft) SW 232 10 min 766 W/m 18,9 C 6,4 km/h (2 Bft)
24.05.2024 14:00 18,7 C 54 % 1019,0 hPa 0,0 l/m 1,3 km/h (1 Bft) NW 305 10 min 554 W/m 18,7 C 4,8 km/h (1 Bft)
24.05.2024 13:50 18,4 C 56 % 1019,1 hPa 0,0 l/m 1,2 km/h (1 Bft) N-NO 15 10 min 371 W/m 18,4 C 4,8 km/h (1 Bft)
24.05.2024 13:40 18,0 C 55 % 1019,2 hPa 0,0 l/m 3,5 km/h (1 Bft) N-NO 17 10 min 457 W/m 18,0 C 6,4 km/h (2 Bft)
24.05.2024 13:30 17,8 C 55 % 1019,3 hPa 0,0 l/m 2,5 km/h (1 Bft) N 351 10 min 617 W/m 17,8 C 8,0 km/h (2 Bft)
24.05.2024 13:20 17,6 C 55 % 1019,4 hPa 0,0 l/m 2,5 km/h (1 Bft) NW 306 10 min 664 W/m 17,6 C 8,0 km/h (2 Bft)
24.05.2024 13:10 17,2 C 56 % 1019,4 hPa 0,0 l/m 1,3 km/h (1 Bft) NW 319 10 min 485 W/m 17,2 C 4,8 km/h (1 Bft)
24.05.2024 13:00 16,8 C 57 % 1019,5 hPa 0,0 l/m 1,0 km/h (0 Bft) N-NW 331 10 min 468 W/m 16,8 C 4,8 km/h (1 Bft)
24.05.2024 12:50 16,4 C 58 % 1019,6 hPa 0,0 l/m 0,1 km/h (0 Bft) S-SW 202 10 min 364 W/m 16,4 C 3,2 km/h (1 Bft)
24.05.2024 12:40 16,1 C 58 % 1019,7 hPa 0,0 l/m 0,3 km/h (0 Bft) S-SW 196 10 min 269 W/m 16,1 C 4,8 km/h (1 Bft)
24.05.2024 12:30 15,8 C 59 % 1019,7 hPa 0,0 l/m 0,0 km/h (0 Bft) O-SO 102 10 min 255 W/m 15,8 C 1,6 km/h (1 Bft)
24.05.2024 12:20 15,6 C 59 % 1019,9 hPa 0,2 l/m 0,0 km/h (0 Bft) O-SO 113 10 min 186 W/m 15,6 C 1,6 km/h (1 Bft)
24.05.2024 12:10 15,7 C 58 % 1019,9 hPa 0,4 l/m 1,0 km/h (0 Bft) O-SO 113 0 min 98 W/m 15,7 C 3,2 km/h (1 Bft)
24.05.2024 12:00 15,8 C 58 % 1019,9 hPa 0,0 l/m 0,6 km/h (0 Bft) O-SO 113 0 min 58 W/m 15,8 C 3,2 km/h (1 Bft)
24.05.2024 11:50 16,0 C 57 % 1020,0 hPa 0,2 l/m 0,5 km/h (0 Bft) O-SO 113 0 min 84 W/m 16,0 C 3,2 km/h (1 Bft)
24.05.2024 11:40 16,2 C 57 % 1019,9 hPa 0,0 l/m 0,6 km/h (0 Bft) O-SO 113 0 min 93 W/m 16,2 C 3,2 km/h (1 Bft)
24.05.2024 11:30 16,3 C 57 % 1020,0 hPa 0,2 l/m 0,4 km/h (0 Bft) O-SO 113 0 min 104 W/m 16,3 C 4,8 km/h (1 Bft)
24.05.2024 11:20 16,3 C 56 % 1019,9 hPa 0,0 l/m 2,0 km/h (1 Bft) O-SO 113 0 min 111 W/m 16,3 C 6,4 km/h (2 Bft)
24.05.2024 11:10 16,5 C 56 % 1019,8 hPa 0,2 l/m 0,6 km/h (0 Bft) O-SO 116 0 min 132 W/m 16,5 C 4,8 km/h (1 Bft)
24.05.2024 11:00 16,4 C 56 % 1020,0 hPa 0,0 l/m 1,7 km/h (1 Bft) O-SO 117 10 min 155 W/m 16,4 C 6,4 km/h (2 Bft)
24.05.2024 10:50 16,3 C 57 % 1019,9 hPa 0,0 l/m 1,5 km/h (1 Bft) O-SO 117 10 min 171 W/m 16,3 C 4,8 km/h (1 Bft)
24.05.2024 10:40 16,2 C 57 % 1019,9 hPa 0,0 l/m 1,3 km/h (1 Bft) SO 126 10 min 162 W/m 16,2 C 4,8 km/h (1 Bft)
24.05.2024 10:30 16,1 C 58 % 1019,9 hPa 0,0 l/m 0,7 km/h (0 Bft) S-SO 157 10 min 156 W/m 16,1 C 4,8 km/h (1 Bft)
24.05.2024 10:20 15,9 C 58 % 1019,9 hPa 0,0 l/m 0,5 km/h (0 Bft) S-SO 159 0 min 111 W/m 15,9 C 3,2 km/h (1 Bft)
24.05.2024 10:10 15,8 C 58 % 1019,9 hPa 0,0 l/m 0,5 km/h (0 Bft) S-SO 156 0 min 104 W/m 15,8 C 3,2 km/h (1 Bft)
24.05.2024 10:00 15,7 C 58 % 1019,8 hPa 0,0 l/m 0,4 km/h (0 Bft) S-SO 157 0 min 113 W/m 15,7 C 4,8 km/h (1 Bft)
24.05.2024 09:50 15,5 C 58 % 1019,7 hPa 0,0 l/m 0,4 km/h (0 Bft) S-SO 157 0 min 86 W/m 15,5 C 3,2 km/h (1 Bft)
24.05.2024 09:40 15,3 C 58 % 1019,6 hPa 0,0 l/m 1,1 km/h (1 Bft) S-SO 165 0 min 111 W/m 15,3 C 6,4 km/h (2 Bft)
24.05.2024 09:30 15,3 C 59 % 1019,8 hPa 0,0 l/m 0,9 km/h (0 Bft) SO 126 0 min 118 W/m 15,3 C 4,8 km/h (1 Bft)
24.05.2024 09:20 15,2 C 59 % 1019,6 hPa 0,0 l/m 1,1 km/h (1 Bft) O-NO 73 0 min 95 W/m 15,2 C 4,8 km/h (1 Bft)
24.05.2024 09:10 15,1 C 59 % 1019,6 hPa 0,0 l/m 0,6 km/h (0 Bft) SO 132 0 min 79 W/m 15,1 C 3,2 km/h (1 Bft)
24.05.2024 09:00 15,1 C 59 % 1019,6 hPa 0,0 l/m 0,6 km/h (0 Bft) SO 132 0 min 72 W/m 15,1 C 3,2 km/h (1 Bft)
24.05.2024 08:50 15,2 C 58 % 1019,6 hPa 0,0 l/m 1,0 km/h (0 Bft) SO 132 0 min 53 W/m 15,2 C 4,8 km/h (1 Bft)
24.05.2024 08:40 15,4 C 58 % 1019,6 hPa 0,0 l/m 1,3 km/h (1 Bft) S-SO 156 0 min 49 W/m 15,4 C 8,0 km/h (2 Bft)
24.05.2024 08:30 15,8 C 57 % 1019,6 hPa 0,0 l/m 1,1 km/h (1 Bft) S 170 0 min 37 W/m 15,8 C 4,8 km/h (1 Bft)
24.05.2024 08:20 15,7 C 55 % 1019,3 hPa 0,0 l/m 4,5 km/h (1 Bft) SO 146 0 min 35 W/m 15,7 C 11,3 km/h (2 Bft)
24.05.2024 08:10 15,4 C 55 % 1019,2 hPa 0,0 l/m 4,3 km/h (1 Bft) O 98 0 min 49 W/m 15,4 C 14,5 km/h (3 Bft)
24.05.2024 08:00 15,2 C 54 % 1019,1 hPa 0,0 l/m 3,6 km/h (1 Bft) O 99 0 min 95 W/m 15,2 C 11,3 km/h (2 Bft)
24.05.2024 07:50 14,6 C 56 % 1019,1 hPa 0,0 l/m 3,8 km/h (1 Bft) O-SO 102 0 min 88 W/m 14,6 C 12,9 km/h (3 Bft)
24.05.2024 07:40 14,2 C 58 % 1019,1 hPa 0,0 l/m 0,5 km/h (0 Bft) O-SO 120 0 min 84 W/m 14,2 C 3,2 km/h (1 Bft)
24.05.2024 07:30 13,9 C 59 % 1019,0 hPa 0,0 l/m 0,4 km/h (0 Bft) O-SO 119 0 min 111 W/m 13,9 C 3,2 km/h (1 Bft)
24.05.2024 07:20 13,5 C 60 % 1019,1 hPa 0,0 l/m 0,6 km/h (0 Bft) O-SO 119 10 min 153 W/m 13,5 C 3,2 km/h (1 Bft)
24.05.2024 07:10 13,0 C 60 % 1019,1 hPa 0,0 l/m 0,0 km/h (0 Bft) O-SO 119 0 min 132 W/m 13,0 C 1,6 km/h (1 Bft)
24.05.2024 07:00 12,6 C 61 % 1019,1 hPa 0,0 l/m 0,0 km/h (0 Bft) O-SO 119 0 min 128 W/m 12,6 C 0,0 km/h (0 Bft)
24.05.2024 06:50 12,1 C 61 % 1019,1 hPa 0,0 l/m 0,8 km/h (0 Bft) O-SO 119 10 min 160 W/m 12,1 C 3,2 km/h (1 Bft)
24.05.2024 06:40 11,8 C 61 % 1019,1 hPa 0,0 l/m 0,4 km/h (0 Bft) O-SO 119 0 min 148 W/m 11,8 C 3,2 km/h (1 Bft)
24.05.2024 06:30 11,3 C 61 % 1019,1 hPa 0,0 l/m 0,0 km/h (0 Bft) O-SO 119 0 min 114 W/m 11,3 C 1,6 km/h (1 Bft)
24.05.2024 06:20 10,9 C 61 % 1019,1 hPa 0,0 l/m 0,1 km/h (0 Bft) O-SO 119 0 min 98 W/m 10,9 C 1,6 km/h (1 Bft)
24.05.2024 06:10 10,5 C 60 % 1019,0 hPa 0,0 l/m 0,6 km/h (0 Bft) O-SO 119 0 min 69 W/m 10,5 C 3,2 km/h (1 Bft)
24.05.2024 06:00 10,3 C 60 % 1018,9 hPa 0,0 l/m 0,0 km/h (0 Bft) O-SO 119 0 min 53 W/m 10,3 C 0,0 km/h (0 Bft)
24.05.2024 05:50 10,1 C 60 % 1019,0 hPa 0,0 l/m 0,2 km/h (0 Bft) O-SO 119 0 min 40 W/m 10,1 C 3,2 km/h (1 Bft)
24.05.2024 05:40 10,1 C 60 % 1018,9 hPa 0,0 l/m 0,1 km/h (0 Bft) O-SO 119 0 min 28 W/m 10,1 C 3,2 km/h (1 Bft)
24.05.2024 05:30 9,8 C 60 % 1019,0 hPa 0,0 l/m 0,0 km/h (0 Bft) O-SO 119 0 min 14 W/m 9,8 C 0,0 km/h (0 Bft)
24.05.2024 05:20 9,6 C 60 % 1019,0 hPa 0,0 l/m 0,0 km/h (0 Bft) O-SO 119 0 min 5 W/m 9,6 C 1,6 km/h (1 Bft)
24.05.2024 05:10 9,7 C 59 % 1019,0 hPa 0,0 l/m 0,2 km/h (0 Bft) O-SO 119 0 min 0 W/m 9,7 C 1,6 km/h (1 Bft)
24.05.2024 05:00 9,9 C 59 % 1019,0 hPa 0,0 l/m 0,0 km/h (0 Bft) O-SO 119 0 min 0 W/m 9,9 C 0,0 km/h (0 Bft)
24.05.2024 04:50 9,9 C 59 % 1019,0 hPa 0,0 l/m 0,0 km/h (0 Bft) O-SO 119 0 min 0 W/m 9,9 C 1,6 km/h (1 Bft)
24.05.2024 04:40 10,0 C 59 % 1019,0 hPa 0,0 l/m 0,0 km/h (0 Bft) O-SO 119 0 min 0 W/m 10,0 C 1,6 km/h (1 Bft)
24.05.2024 04:30 10,2 C 59 % 1019,1 hPa 0,0 l/m 0,2 km/h (0 Bft) O-SO 119 0 min 0 W/m 10,2 C 3,2 km/h (1 Bft)
24.05.2024 04:20 10,1 C 59 % 1019,1 hPa 0,0 l/m 0,7 km/h (0 Bft) O-SO 119 0 min 0 W/m 10,1 C 3,2 km/h (1 Bft)
24.05.2024 04:10 10,1 C 59 % 1019,1 hPa 0,0 l/m 1,6 km/h (1 Bft) O-SO 119 0 min 0 W/m 10,1 C 3,2 km/h (1 Bft)
24.05.2024 04:00 10,1 C 59 % 1019,0 hPa 0,0 l/m 0,1 km/h (0 Bft) O-SO 119 0 min 0 W/m 10,1 C 1,6 km/h (1 Bft)
24.05.2024 03:50 10,2 C 59 % 1018,9 hPa 0,0 l/m 0,1 km/h (0 Bft) O-SO 119 0 min 0 W/m 10,2 C 1,6 km/h (1 Bft)
24.05.2024 03:40 10,4 C 59 % 1018,9 hPa 0,0 l/m 0,1 km/h (0 Bft) O-SO 119 0 min 0 W/m 10,4 C 1,6 km/h (1 Bft)
24.05.2024 03:30 10,6 C 59 % 1018,9 hPa 0,0 l/m 0,1 km/h (0 Bft) O-SO 119 0 min 0 W/m 10,6 C 1,6 km/h (1 Bft)
24.05.2024 03:20 10,5 C 59 % 1018,9 hPa 0,0 l/m 0,4 km/h (0 Bft) O-SO 119 0 min 0 W/m 10,5 C 3,2 km/h (1 Bft)
24.05.2024 03:10 10,7 C 59 % 1018,9 hPa 0,0 l/m 0,2 km/h (0 Bft) O-SO 119 0 min 0 W/m 10,7 C 3,2 km/h (1 Bft)
24.05.2024 03:00 10,7 C 59 % 1018,9 hPa 0,0 l/m 0,0 km/h (0 Bft) O-SO 119 0 min 0 W/m 10,7 C 1,6 km/h (1 Bft)
24.05.2024 02:50 10,8 C 59 % 1018,9 hPa 0,0 l/m 0,0 km/h (0 Bft) O-SO 119 0 min 0 W/m 10,8 C 1,6 km/h (1 Bft)
24.05.2024 02:40 11,0 C 59 % 1019,1 hPa 0,0 l/m 0,0 km/h (0 Bft) O-SO 119 0 min 0 W/m 11,0 C 1,6 km/h (1 Bft)
24.05.2024 02:30 11,2 C 59 % 1019,0 hPa 0,0 l/m 0,6 km/h (0 Bft) O-SO 119 0 min 0 W/m 11,2 C 3,2 km/h (1 Bft)
24.05.2024 02:20 11,2 C 59 % 1019,2 hPa 0,0 l/m 1,7 km/h (1 Bft) O-SO 120 0 min 0 W/m 11,2 C 4,8 km/h (1 Bft)
24.05.2024 02:10 11,3 C 59 % 1019,1 hPa 0,0 l/m 0,6 km/h (0 Bft) O-SO 122 0 min 0 W/m 11,3 C 3,2 km/h (1 Bft)
24.05.2024 02:00 11,4 C 59 % 1019,1 hPa 0,0 l/m 0,1 km/h (0 Bft) O-SO 122 0 min 0 W/m 11,4 C 3,2 km/h (1 Bft)
24.05.2024 01:50 11,5 C 59 % 1019,1 hPa 0,0 l/m 0,4 km/h (0 Bft) O-SO 122 0 min 0 W/m 11,5 C 3,2 km/h (1 Bft)
24.05.2024 01:40 11,7 C 59 % 1019,0 hPa 0,0 l/m 2,8 km/h (1 Bft) SO 126 0 min 0 W/m 11,7 C 6,4 km/h (2 Bft)
24.05.2024 01:30 11,7 C 59 % 1019,1 hPa 0,0 l/m 2,0 km/h (1 Bft) SO 130 0 min 0 W/m 11,7 C 6,4 km/h (2 Bft)
24.05.2024 01:20 11,7 C 59 % 1019,0 hPa 0,0 l/m 0,4 km/h (0 Bft) SO 134 0 min 0 W/m 11,7 C 3,2 km/h (1 Bft)
24.05.2024 01:10 11,8 C 59 % 1019,0 hPa 0,0 l/m 0,1 km/h (0 Bft) SO 134 0 min 0 W/m 11,8 C 1,6 km/h (1 Bft)
24.05.2024 01:00 12,0 C 59 % 1019,0 hPa 0,0 l/m 0,0 km/h (0 Bft) O-SO 114 0 min 0 W/m 12,0 C 0,0 km/h (0 Bft)
24.05.2024 00:50 12,2 C 59 % 1019,0 hPa 0,0 l/m 0,0 km/h (0 Bft) O-SO 114 0 min 0 W/m 12,2 C 1,6 km/h (1 Bft)
24.05.2024 00:40 12,3 C 59 % 1018,8 hPa 0,0 l/m 0,0 km/h (0 Bft) O-SO 114 0 min 0 W/m 12,3 C 1,6 km/h (1 Bft)
24.05.2024 00:30 12,4 C 59 % 1018,8 hPa 0,0 l/m 0,5 km/h (0 Bft) O-SO 114 0 min 0 W/m 12,4 C 3,2 km/h (1 Bft)
24.05.2024 00:20 12,6 C 59 % 1018,7 hPa 0,0 l/m 0,4 km/h (0 Bft) O-SO 114 0 min 0 W/m 12,6 C 3,2 km/h (1 Bft)
24.05.2024 00:10 12,7 C 59 % 1018,8 hPa 0,0 l/m 1,0 km/h (0 Bft) O-SO 114 0 min 0 W/m 12,7 C 6,4 km/h (2 Bft)
24.05.2024 00:00 12,9 C 60 % 1018,7 hPa 0,0 l/m 0,0 km/h (0 Bft) SO 140 0 min 0 W/m 12,9 C 0,0 km/h (0 Bft)
23.05.2024 23:50 13,1 C 60 % 1018,7 hPa 0,0 l/m 0,0 km/h (0 Bft) SO 140 0 min 0 W/m 13,1 C 0,0 km/h (0 Bft)
23.05.2024 23:40 13,3 C 61 % 1018,7 hPa 0,0 l/m 1,1 km/h (1 Bft) SO 140 0 min 0 W/m 13,3 C 3,2 km/h (1 Bft)
23.05.2024 23:30 13,4 C 61 % 1018,7 hPa 0,0 l/m 0,4 km/h (0 Bft) SO 140 0 min 0 W/m 13,4 C 3,2 km/h (1 Bft)
23.05.2024 23:20 13,6 C 61 % 1018,6 hPa 0,0 l/m 0,4 km/h (0 Bft) SO 140 0 min 0 W/m 13,6 C 3,2 km/h (1 Bft)
23.05.2024 23:10 13,8 C 61 % 1018,6 hPa 0,0 l/m 0,2 km/h (0 Bft) SO 140 0 min 0 W/m 13,8 C 3,2 km/h (1 Bft)
23.05.2024 23:00 14,1 C 61 % 1018,7 hPa 0,0 l/m 0,5 km/h (0 Bft) SO 140 0 min 0 W/m 14,1 C 3,2 km/h (1 Bft)
23.05.2024 22:50 14,4 C 61 % 1018,6 hPa 0,0 l/m 0,5 km/h (0 Bft) SO 140 0 min 0 W/m 14,4 C 3,2 km/h (1 Bft)
23.05.2024 22:40 14,7 C 60 % 1018,5 hPa 0,0 l/m 3,6 km/h (1 Bft) SO 140 0 min 0 W/m 14,7 C 8,0 km/h (2 Bft)
23.05.2024 22:30 15,1 C 59 % 1018,4 hPa 0,0 l/m 2,0 km/h (1 Bft) O-SO 121 0 min 0 W/m 15,1 C 6,4 km/h (2 Bft)
23.05.2024 22:20 15,5 C 58 % 1018,4 hPa 0,0 l/m 0,7 km/h (0 Bft) O-SO 122 0 min 0 W/m 15,5 C 3,2 km/h (1 Bft)
23.05.2024 22:10 15,8 C 58 % 1018,4 hPa 0,0 l/m 2,9 km/h (1 Bft) O-SO 122 0 min 0 W/m 15,8 C 4,8 km/h (1 Bft)
23.05.2024 22:00 16,1 C 57 % 1018,0 hPa 0,0 l/m 4,0 km/h (1 Bft) O-SO 118 0 min 0 W/m 16,1 C 6,4 km/h (2 Bft)
23.05.2024 21:50 16,5 C 56 % 1017,8 hPa 0,0 l/m 4,4 km/h (1 Bft) O-SO 111 0 min 0 W/m 16,5 C 6,4 km/h (2 Bft)
23.05.2024 21:40 17,1 C 54 % 1017,8 hPa 0,0 l/m 2,7 km/h (1 Bft) O-SO 119 0 min 0 W/m 17,1 C 9,7 km/h (2 Bft)
23.05.2024 21:30 17,6 C 52 % 1017,8 hPa 0,0 l/m 0,0 km/h (0 Bft) N-NW 336 0 min 0 W/m 17,6 C 0,0 km/h (0 Bft)
23.05.2024 21:20 18,0 C 50 % 1017,5 hPa 0,0 l/m 0,1 km/h (0 Bft) N-NW 336 0 min 5 W/m 18,0 C 1,6 km/h (1 Bft)
23.05.2024 21:10 18,4 C 49 % 1017,4 hPa 0,0 l/m 0,7 km/h (0 Bft) N-NW 336 0 min 11 W/m 18,4 C 4,8 km/h (1 Bft)
23.05.2024 21:00 18,8 C 48 % 1017,4 hPa 0,0 l/m 0,5 km/h (0 Bft) N-NW 336 0 min 16 W/m 18,8 C 3,2 km/h (1 Bft)
23.05.2024 20:50 19,1 C 47 % 1017,3 hPa 0,0 l/m 1,8 km/h (1 Bft) N-NW 336 0 min 21 W/m 19,1 C 4,8 km/h (1 Bft)
23.05.2024 20:40 19,3 C 46 % 1017,1 hPa 0,0 l/m 2,3 km/h (1 Bft) N-NW 336 0 min 26 W/m 19,3 C 6,4 km/h (2 Bft)
23.05.2024 20:30 19,4 C 46 % 1017,0 hPa 0,0 l/m 2,7 km/h (1 Bft) N-NW 338 0 min 32 W/m 19,4 C 6,4 km/h (2 Bft)
23.05.2024 20:20 19,6 C 45 % 1017,0 hPa 0,0 l/m 3,5 km/h (1 Bft) N 355 0 min 35 W/m 19,6 C 6,4 km/h (2 Bft)
23.05.2024 20:10 19,7 C 44 % 1016,9 hPa 0,0 l/m 3,0 km/h (1 Bft) N-NW 336 0 min 42 W/m 19,7 C 9,7 km/h (2 Bft)
23.05.2024 20:00 19,8 C 44 % 1016,9 hPa 0,0 l/m 2,8 km/h (1 Bft) N 9 0 min 53 W/m 19,8 C 6,4 km/h (2 Bft)
23.05.2024 19:50 19,8 C 44 % 1016,8 hPa 0,0 l/m 4,0 km/h (1 Bft) N-NW 336 0 min 62 W/m 19,8 C 8,0 km/h (2 Bft)
23.05.2024 19:40 20,0 C 43 % 1016,8 hPa 0,0 l/m 4,0 km/h (1 Bft) N 5 0 min 62 W/m 20,0 C 11,3 km/h (2 Bft)
23.05.2024 19:30 20,1 C 44 % 1016,7 hPa 0,0 l/m 2,6 km/h (1 Bft) N-NW 344 0 min 65 W/m 20,1 C 6,4 km/h (2 Bft)
23.05.2024 19:20 20,2 C 42 % 1016,8 hPa 0,0 l/m 3,3 km/h (1 Bft) NW 313 10 min 207 W/m 20,2 C 8,0 km/h (2 Bft)
23.05.2024 19:10 20,7 C 42 % 1016,8 hPa 0,0 l/m 3,0 km/h (1 Bft) N 5 0 min 121 W/m 20,7 C 8,0 km/h (2 Bft)
23.05.2024 19:00 21,2 C 41 % 1016,7 hPa 0,0 l/m 4,8 km/h (1 Bft) W-SW 245 10 min 169 W/m 21,2 C 12,9 km/h (3 Bft)
23.05.2024 18:50 21,3 C 40 % 1016,6 hPa 0,0 l/m 5,4 km/h (1 Bft) W-NW 298 10 min 339 W/m 21,3 C 16,1 km/h (3 Bft)
23.05.2024 18:40 21,3 C 41 % 1016,4 hPa 0,0 l/m 4,8 km/h (1 Bft) NO 35 10 min 374 W/m 21,3 C 12,9 km/h (3 Bft)
23.05.2024 18:30 21,4 C 40 % 1016,4 hPa 0,0 l/m 3,9 km/h (1 Bft) N-NW 345 10 min 309 W/m 21,4 C 14,5 km/h (3 Bft)
23.05.2024 18:20 21,9 C 38 % 1016,3 hPa 0,0 l/m 4,3 km/h (1 Bft) N 355 10 min 360 W/m 21,9 C 14,5 km/h (3 Bft)
23.05.2024 18:10 22,2 C 39 % 1016,4 hPa 0,0 l/m 4,6 km/h (1 Bft) W-SW 252 10 min 417 W/m 22,2 C 14,5 km/h (3 Bft)
23.05.2024 18:00 22,2 C 39 % 1016,4 hPa 0,0 l/m 4,7 km/h (1 Bft) W-SW 241 10 min 334 W/m 22,2 C 12,9 km/h (3 Bft)
23.05.2024 17:50 22,3 C 37 % 1016,4 hPa 0,0 l/m 4,4 km/h (1 Bft) W-NW 298 10 min 592 W/m 22,3 C 19,3 km/h (3 Bft)
23.05.2024 17:40 21,6 C 37 % 1016,5 hPa 0,0 l/m 5,0 km/h (1 Bft) N-NW 346 10 min 230 W/m 21,6 C 14,5 km/h (3 Bft)
23.05.2024 17:30 22,2 C 37 % 1016,5 hPa 0,0 l/m 5,1 km/h (1 Bft) W-SW 241 10 min 281 W/m 22,2 C 12,9 km/h (3 Bft)
23.05.2024 17:20 22,6 C 35 % 1016,4 hPa 0,0 l/m 5,8 km/h (2 Bft) NW 310 10 min 589 W/m 22,6 C 16,1 km/h (3 Bft)
23.05.2024 17:10 23,0 C 35 % 1016,3 hPa 0,0 l/m 4,2 km/h (1 Bft) W-SW 245 10 min 599 W/m 23,0 C 12,9 km/h (3 Bft)
23.05.2024 17:00 22,8 C 35 % 1016,3 hPa 0,0 l/m 5,7 km/h (1 Bft) NW 325 10 min 628 W/m 22,8 C 16,1 km/h (3 Bft)
_ Min-Zeit 05:20 17:00 17:00 - 21:30 - - - - 05:20 21:30
Minimum _ 9,6 C 35 % 1016,3 hPa - 0,0 km/h (0 Bft) - - - - 9,6 C 0,0 km/h (0 Bft)
_ Max-Zeit 17:20 15:50 11:00 12:10 15:00 - - 17:00 14:10 17:10 15:00
Maximum _ 23,1 C 62 % 1020,0 hPa 0,4 l/m 10,3 km/h
N-NO (2 Bft)
- - 10 min 766 W/m 23,0 C 25,7 km/h
O-NO (4 Bft)
Durchschnitt _ 15,9 C 54 % 1018,5 hPa #1,4 l/m 2,0 km/h (1 Bft) O-SO - #3:40 h 179 W/m 15,9 C 6,7 km/h (2 Bft)